sensor_id;sensor_type;location;lat;lon;timestamp;temperature;humidity
2050;DHT22;8478;49.208;8.806;2024-02-14T00:00:45;10.70;99.90
2050;DHT22;8478;49.208;8.806;2024-02-14T00:03:10;10.70;99.90
2050;DHT22;8478;49.208;8.806;2024-02-14T00:05:36;10.70;99.90
2050;DHT22;8478;49.208;8.806;2024-02-14T00:08:02;10.70;99.90
2050;DHT22;8478;49.208;8.806;2024-02-14T00:10:28;10.70;99.90
2050;DHT22;8478;49.208;8.806;2024-02-14T00:12:54;10.70;99.90
2050;DHT22;8478;49.208;8.806;2024-02-14T00:15:21;10.70;99.90
2050;DHT22;8478;49.208;8.806;2024-02-14T00:17:46;10.70;99.90
2050;DHT22;8478;49.208;8.806;2024-02-14T00:20:12;10.70;99.90
2050;DHT22;8478;49.208;8.806;2024-02-14T00:22:38;10.70;99.90
2050;DHT22;8478;49.208;8.806;2024-02-14T00:25:04;10.70;99.90
2050;DHT22;8478;49.208;8.806;2024-02-14T00:27:30;10.70;99.90
2050;DHT22;8478;49.208;8.806;2024-02-14T00:29:56;10.70;99.90
2050;DHT22;8478;49.208;8.806;2024-02-14T00:32:22;10.70;99.90
2050;DHT22;8478;49.208;8.806;2024-02-14T00:34:47;10.70;99.90
2050;DHT22;8478;49.208;8.806;2024-02-14T00:37:14;10.60;99.90
2050;DHT22;8478;49.208;8.806;2024-02-14T00:39:40;10.70;99.90
2050;DHT22;8478;49.208;8.806;2024-02-14T00:42:06;10.70;99.90
2050;DHT22;8478;49.208;8.806;2024-02-14T00:44:31;10.70;99.90
2050;DHT22;8478;49.208;8.806;2024-02-14T00:46:57;10.70;99.90
2050;DHT22;8478;49.208;8.806;2024-02-14T00:49:27;10.70;99.90
2050;DHT22;8478;49.208;8.806;2024-02-14T00:51:53;10.70;99.90
2050;DHT22;8478;49.208;8.806;2024-02-14T00:54:18;10.60;99.90
2050;DHT22;8478;49.208;8.806;2024-02-14T00:56:45;10.70;99.90
2050;DHT22;8478;49.208;8.806;2024-02-14T00:59:10;10.70;99.90
2050;DHT22;8478;49.208;8.806;2024-02-14T01:01:36;10.70;99.90
2050;DHT22;8478;49.208;8.806;2024-02-14T01:04:01;10.70;99.90
2050;DHT22;8478;49.208;8.806;2024-02-14T01:06:30;10.60;99.90
2050;DHT22;8478;49.208;8.806;2024-02-14T01:08:55;10.60;99.90
2050;DHT22;8478;49.208;8.806;2024-02-14T01:11:21;10.60;99.90
2050;DHT22;8478;49.208;8.806;2024-02-14T01:13:47;10.60;99.90
2050;DHT22;8478;49.208;8.806;2024-02-14T01:16:12;10.70;99.90
2050;DHT22;8478;49.208;8.806;2024-02-14T01:18:38;10.70;99.90
2050;DHT22;8478;49.208;8.806;2024-02-14T01:21:05;10.70;99.90
2050;DHT22;8478;49.208;8.806;2024-02-14T01:23:32;10.70;99.90
2050;DHT22;8478;49.208;8.806;2024-02-14T01:25:58;10.70;99.90
2050;DHT22;8478;49.208;8.806;2024-02-14T01:28:23;10.70;99.90
2050;DHT22;8478;49.208;8.806;2024-02-14T01:30:49;10.70;99.90
2050;DHT22;8478;49.208;8.806;2024-02-14T01:33:15;10.60;99.90
2050;DHT22;8478;49.208;8.806;2024-02-14T01:35:42;10.70;99.90
2050;DHT22;8478;49.208;8.806;2024-02-14T01:38:08;10.70;99.90
2050;DHT22;8478;49.208;8.806;2024-02-14T01:40:33;10.70;99.90
2050;DHT22;8478;49.208;8.806;2024-02-14T01:42:59;10.70;99.90
2050;DHT22;8478;49.208;8.806;2024-02-14T01:45:26;10.70;99.90
2050;DHT22;8478;49.208;8.806;2024-02-14T01:47:53;10.70;99.90
2050;DHT22;8478;49.208;8.806;2024-02-14T01:50:19;10.70;99.90
2050;DHT22;8478;49.208;8.806;2024-02-14T01:52:54;10.70;99.90
2050;DHT22;8478;49.208;8.806;2024-02-14T01:55:21;10.70;99.90
2050;DHT22;8478;49.208;8.806;2024-02-14T01:57:47;10.70;99.90
2050;DHT22;8478;49.208;8.806;2024-02-14T02:00:14;10.70;99.90
2050;DHT22;8478;49.208;8.806;2024-02-14T02:02:43;10.70;99.90
2050;DHT22;8478;49.208;8.806;2024-02-14T02:05:09;10.70;99.90
2050;DHT22;8478;49.208;8.806;2024-02-14T02:07:35;10.70;99.90
2050;DHT22;8478;49.208;8.806;2024-02-14T02:10:05;10.60;99.90
2050;DHT22;8478;49.208;8.806;2024-02-14T02:12:30;10.60;99.90
2050;DHT22;8478;49.208;8.806;2024-02-14T02:14:56;10.70;99.90
2050;DHT22;8478;49.208;8.806;2024-02-14T02:17:22;10.70;99.90
2050;DHT22;8478;49.208;8.806;2024-02-14T02:19:48;10.70;99.90
2050;DHT22;8478;49.208;8.806;2024-02-14T02:22:14;10.70;99.90
2050;DHT22;8478;49.208;8.806;2024-02-14T02:24:39;10.70;99.90
2050;DHT22;8478;49.208;8.806;2024-02-14T02:27:06;10.70;99.90
2050;DHT22;8478;49.208;8.806;2024-02-14T02:29:31;10.70;99.90
2050;DHT22;8478;49.208;8.806;2024-02-14T02:31:58;10.70;99.90
2050;DHT22;8478;49.208;8.806;2024-02-14T02:34:23;10.70;99.90
2050;DHT22;8478;49.208;8.806;2024-02-14T02:36:49;10.70;99.90
2050;DHT22;8478;49.208;8.806;2024-02-14T02:39:16;10.70;99.90
2050;DHT22;8478;49.208;8.806;2024-02-14T02:41:42;10.70;99.90
2050;DHT22;8478;49.208;8.806;2024-02-14T02:44:07;10.70;99.90
2050;DHT22;8478;49.208;8.806;2024-02-14T02:46:33;10.60;99.90
2050;DHT22;8478;49.208;8.806;2024-02-14T02:48:59;10.70;99.90
2050;DHT22;8478;49.208;8.806;2024-02-14T02:51:25;10.70;99.90
2050;DHT22;8478;49.208;8.806;2024-02-14T02:53:50;10.70;99.90
2050;DHT22;8478;49.208;8.806;2024-02-14T02:56:17;10.70;99.90
2050;DHT22;8478;49.208;8.806;2024-02-14T02:58:44;10.70;99.90
2050;DHT22;8478;49.208;8.806;2024-02-14T03:01:10;10.60;99.90
2050;DHT22;8478;49.208;8.806;2024-02-14T03:03:37;10.70;99.90
2050;DHT22;8478;49.208;8.806;2024-02-14T03:06:04;10.60;99.90
2050;DHT22;8478;49.208;8.806;2024-02-14T03:08:31;10.70;99.90
2050;DHT22;8478;49.208;8.806;2024-02-14T03:11:04;10.70;99.90
2050;DHT22;8478;49.208;8.806;2024-02-14T03:13:29;10.70;99.90
2050;DHT22;8478;49.208;8.806;2024-02-14T03:15:55;10.60;99.90
2050;DHT22;8478;49.208;8.806;2024-02-14T03:18:22;10.70;99.90
2050;DHT22;8478;49.208;8.806;2024-02-14T03:20:48;10.60;99.90
2050;DHT22;8478;49.208;8.806;2024-02-14T03:23:15;10.60;99.90
2050;DHT22;8478;49.208;8.806;2024-02-14T03:25:41;10.60;99.90
2050;DHT22;8478;49.208;8.806;2024-02-14T03:28:08;10.60;99.90
2050;DHT22;8478;49.208;8.806;2024-02-14T03:30:37;10.70;99.90
2050;DHT22;8478;49.208;8.806;2024-02-14T03:33:05;10.70;99.90
2050;DHT22;8478;49.208;8.806;2024-02-14T03:35:31;10.70;99.90
2050;DHT22;8478;49.208;8.806;2024-02-14T03:37:56;10.60;99.90
2050;DHT22;8478;49.208;8.806;2024-02-14T03:40:22;10.70;99.90
2050;DHT22;8478;49.208;8.806;2024-02-14T03:42:48;10.60;99.90
2050;DHT22;8478;49.208;8.806;2024-02-14T03:45:14;10.60;99.90
2050;DHT22;8478;49.208;8.806;2024-02-14T03:47:40;10.60;99.90
2050;DHT22;8478;49.208;8.806;2024-02-14T03:50:07;10.60;99.90
2050;DHT22;8478;49.208;8.806;2024-02-14T03:52:33;10.70;99.90
2050;DHT22;8478;49.208;8.806;2024-02-14T03:55:03;10.60;99.90
2050;DHT22;8478;49.208;8.806;2024-02-14T03:57:29;10.60;99.90
2050;DHT22;8478;49.208;8.806;2024-02-14T03:59:55;10.70;99.90
2050;DHT22;8478;49.208;8.806;2024-02-14T04:02:21;10.60;99.90
2050;DHT22;8478;49.208;8.806;2024-02-14T04:04:49;10.70;99.90
2050;DHT22;8478;49.208;8.806;2024-02-14T04:07:14;10.70;99.90
2050;DHT22;8478;49.208;8.806;2024-02-14T04:09:40;10.70;99.90
2050;DHT22;8478;49.208;8.806;2024-02-14T04:12:06;10.70;99.90
2050;DHT22;8478;49.208;8.806;2024-02-14T04:14:32;10.70;99.90
2050;DHT22;8478;49.208;8.806;2024-02-14T04:16:57;10.70;99.90
2050;DHT22;8478;49.208;8.806;2024-02-14T04:19:23;10.60;99.90
2050;DHT22;8478;49.208;8.806;2024-02-14T04:21:48;10.60;99.90
2050;DHT22;8478;49.208;8.806;2024-02-14T04:24:14;10.60;99.90
2050;DHT22;8478;49.208;8.806;2024-02-14T04:26:40;10.60;99.90
2050;DHT22;8478;49.208;8.806;2024-02-14T04:29:05;10.70;99.90
2050;DHT22;8478;49.208;8.806;2024-02-14T04:31:33;10.60;99.90
2050;DHT22;8478;49.208;8.806;2024-02-14T04:33:58;10.70;99.90
2050;DHT22;8478;49.208;8.806;2024-02-14T04:36:24;10.60;99.90
2050;DHT22;8478;49.208;8.806;2024-02-14T04:38:50;10.70;99.90
2050;DHT22;8478;49.208;8.806;2024-02-14T04:41:16;10.60;99.90
2050;DHT22;8478;49.208;8.806;2024-02-14T04:43:42;10.70;99.90
2050;DHT22;8478;49.208;8.806;2024-02-14T04:46:07;10.70;99.90
2050;DHT22;8478;49.208;8.806;2024-02-14T04:48:34;10.70;99.90
2050;DHT22;8478;49.208;8.806;2024-02-14T04:51:00;10.70;99.90
2050;DHT22;8478;49.208;8.806;2024-02-14T04:53:26;10.70;99.90
2050;DHT22;8478;49.208;8.806;2024-02-14T04:55:53;10.60;99.90
2050;DHT22;8478;49.208;8.806;2024-02-14T04:58:19;10.60;99.90
2050;DHT22;8478;49.208;8.806;2024-02-14T05:00:44;10.70;99.90
2050;DHT22;8478;49.208;8.806;2024-02-14T05:03:10;10.70;99.90
2050;DHT22;8478;49.208;8.806;2024-02-14T05:05:36;10.70;99.90
2050;DHT22;8478;49.208;8.806;2024-02-14T05:08:02;10.70;99.90
2050;DHT22;8478;49.208;8.806;2024-02-14T05:10:28;10.70;99.90
2050;DHT22;8478;49.208;8.806;2024-02-14T05:12:54;10.70;99.90
2050;DHT22;8478;49.208;8.806;2024-02-14T05:15:20;10.70;99.90
2050;DHT22;8478;49.208;8.806;2024-02-14T05:17:45;10.70;99.90
2050;DHT22;8478;49.208;8.806;2024-02-14T05:20:12;10.70;99.90
2050;DHT22;8478;49.208;8.806;2024-02-14T05:22:38;10.70;99.90
2050;DHT22;8478;49.208;8.806;2024-02-14T05:25:04;10.70;99.90
2050;DHT22;8478;49.208;8.806;2024-02-14T05:27:31;10.70;99.90
2050;DHT22;8478;49.208;8.806;2024-02-14T05:29:56;10.70;99.90
2050;DHT22;8478;49.208;8.806;2024-02-14T05:32:23;10.70;99.90
2050;DHT22;8478;49.208;8.806;2024-02-14T05:34:50;10.60;99.90
2050;DHT22;8478;49.208;8.806;2024-02-14T05:37:16;10.70;99.90
2050;DHT22;8478;49.208;8.806;2024-02-14T05:39:41;10.70;99.90
2050;DHT22;8478;49.208;8.806;2024-02-14T05:42:08;10.70;99.90
2050;DHT22;8478;49.208;8.806;2024-02-14T05:44:34;10.70;99.90
2050;DHT22;8478;49.208;8.806;2024-02-14T05:46:59;10.70;99.90
2050;DHT22;8478;49.208;8.806;2024-02-14T05:49:25;10.70;99.90
2050;DHT22;8478;49.208;8.806;2024-02-14T05:51:51;10.70;99.90
2050;DHT22;8478;49.208;8.806;2024-02-14T05:54:19;10.70;99.90
2050;DHT22;8478;49.208;8.806;2024-02-14T05:56:45;10.70;99.90
2050;DHT22;8478;49.208;8.806;2024-02-14T05:59:11;10.70;99.90
2050;DHT22;8478;49.208;8.806;2024-02-14T06:01:37;10.70;99.90
2050;DHT22;8478;49.208;8.806;2024-02-14T06:04:02;10.70;99.90
2050;DHT22;8478;49.208;8.806;2024-02-14T06:06:28;10.70;99.90
2050;DHT22;8478;49.208;8.806;2024-02-14T06:08:54;10.70;99.90
2050;DHT22;8478;49.208;8.806;2024-02-14T06:11:20;10.70;99.90
2050;DHT22;8478;49.208;8.806;2024-02-14T06:13:47;10.70;99.90
2050;DHT22;8478;49.208;8.806;2024-02-14T06:16:13;10.70;99.90
2050;DHT22;8478;49.208;8.806;2024-02-14T06:18:39;10.70;99.90
2050;DHT22;8478;49.208;8.806;2024-02-14T06:21:06;10.70;99.90
2050;DHT22;8478;49.208;8.806;2024-02-14T06:23:31;10.70;99.90
2050;DHT22;8478;49.208;8.806;2024-02-14T06:26:00;10.70;99.90
2050;DHT22;8478;49.208;8.806;2024-02-14T06:28:26;10.70;99.90
2050;DHT22;8478;49.208;8.806;2024-02-14T06:30:51;10.70;99.90
2050;DHT22;8478;49.208;8.806;2024-02-14T06:33:17;10.70;99.90
2050;DHT22;8478;49.208;8.806;2024-02-14T06:35:43;10.70;99.90
2050;DHT22;8478;49.208;8.806;2024-02-14T06:38:09;10.70;99.90
2050;DHT22;8478;49.208;8.806;2024-02-14T06:40:34;10.70;99.90
2050;DHT22;8478;49.208;8.806;2024-02-14T06:43:00;10.70;99.90
2050;DHT22;8478;49.208;8.806;2024-02-14T06:45:26;10.70;99.90
2050;DHT22;8478;49.208;8.806;2024-02-14T06:47:53;10.70;99.90
2050;DHT22;8478;49.208;8.806;2024-02-14T06:50:19;10.70;99.90
2050;DHT22;8478;49.208;8.806;2024-02-14T06:52:45;10.70;99.90
2050;DHT22;8478;49.208;8.806;2024-02-14T06:55:11;10.70;99.90
2050;DHT22;8478;49.208;8.806;2024-02-14T06:57:38;10.70;99.90
2050;DHT22;8478;49.208;8.806;2024-02-14T07:00:05;10.70;99.90
2050;DHT22;8478;49.208;8.806;2024-02-14T07:02:32;10.70;99.90
2050;DHT22;8478;49.208;8.806;2024-02-14T07:04:57;10.70;99.90
2050;DHT22;8478;49.208;8.806;2024-02-14T07:07:23;10.70;99.90
2050;DHT22;8478;49.208;8.806;2024-02-14T07:09:48;10.70;99.90
2050;DHT22;8478;49.208;8.806;2024-02-14T07:12:14;10.70;99.90
2050;DHT22;8478;49.208;8.806;2024-02-14T07:14:40;10.70;99.90
2050;DHT22;8478;49.208;8.806;2024-02-14T07:17:06;10.70;99.90
2050;DHT22;8478;49.208;8.806;2024-02-14T07:19:31;10.70;99.90
2050;DHT22;8478;49.208;8.806;2024-02-14T07:21:57;10.70;99.90
2050;DHT22;8478;49.208;8.806;2024-02-14T07:24:23;10.70;99.90
2050;DHT22;8478;49.208;8.806;2024-02-14T07:26:48;10.70;99.90
2050;DHT22;8478;49.208;8.806;2024-02-14T07:29:14;10.70;99.90
2050;DHT22;8478;49.208;8.806;2024-02-14T07:31:39;10.70;99.90
2050;DHT22;8478;49.208;8.806;2024-02-14T07:34:05;10.70;99.90
2050;DHT22;8478;49.208;8.806;2024-02-14T07:36:32;10.70;99.90
2050;DHT22;8478;49.208;8.806;2024-02-14T07:38:57;10.70;99.90
2050;DHT22;8478;49.208;8.806;2024-02-14T07:41:23;10.70;99.90
2050;DHT22;8478;49.208;8.806;2024-02-14T07:43:49;10.70;99.90
2050;DHT22;8478;49.208;8.806;2024-02-14T07:46:19;10.70;99.90
2050;DHT22;8478;49.208;8.806;2024-02-14T07:48:44;10.70;99.90
2050;DHT22;8478;49.208;8.806;2024-02-14T07:51:11;10.70;99.90
2050;DHT22;8478;49.208;8.806;2024-02-14T07:53:36;10.70;99.90
2050;DHT22;8478;49.208;8.806;2024-02-14T07:56:02;10.70;99.90
2050;DHT22;8478;49.208;8.806;2024-02-14T07:58:28;10.70;99.90
2050;DHT22;8478;49.208;8.806;2024-02-14T08:00:53;10.70;99.90
2050;DHT22;8478;49.208;8.806;2024-02-14T08:03:19;10.70;99.90
2050;DHT22;8478;49.208;8.806;2024-02-14T08:05:44;10.70;99.90
2050;DHT22;8478;49.208;8.806;2024-02-14T08:08:10;10.70;99.90
2050;DHT22;8478;49.208;8.806;2024-02-14T08:10:36;10.70;99.90
2050;DHT22;8478;49.208;8.806;2024-02-14T08:13:01;10.70;99.90
2050;DHT22;8478;49.208;8.806;2024-02-14T08:15:30;10.80;99.90
2050;DHT22;8478;49.208;8.806;2024-02-14T08:17:55;10.80;99.90
2050;DHT22;8478;49.208;8.806;2024-02-14T08:20:22;10.70;99.90
2050;DHT22;8478;49.208;8.806;2024-02-14T08:22:49;10.70;99.90
2050;DHT22;8478;49.208;8.806;2024-02-14T08:25:14;10.70;99.90
2050;DHT22;8478;49.208;8.806;2024-02-14T08:27:41;10.70;99.90
2050;DHT22;8478;49.208;8.806;2024-02-14T08:30:07;10.80;99.90
2050;DHT22;8478;49.208;8.806;2024-02-14T08:32:34;10.80;99.90
2050;DHT22;8478;49.208;8.806;2024-02-14T08:35:00;10.70;99.90
2050;DHT22;8478;49.208;8.806;2024-02-14T08:37:26;10.70;99.90
2050;DHT22;8478;49.208;8.806;2024-02-14T08:39:52;10.70;99.90
2050;DHT22;8478;49.208;8.806;2024-02-14T08:42:18;10.70;99.90
2050;DHT22;8478;49.208;8.806;2024-02-14T08:44:44;10.70;99.90
2050;DHT22;8478;49.208;8.806;2024-02-14T08:47:10;10.80;99.90
2050;DHT22;8478;49.208;8.806;2024-02-14T08:49:36;10.80;99.90
2050;DHT22;8478;49.208;8.806;2024-02-14T08:52:01;10.80;99.90
2050;DHT22;8478;49.208;8.806;2024-02-14T08:54:27;10.70;99.90
2050;DHT22;8478;49.208;8.806;2024-02-14T08:56:54;10.80;99.90
2050;DHT22;8478;49.208;8.806;2024-02-14T08:59:21;10.80;99.90
2050;DHT22;8478;49.208;8.806;2024-02-14T09:01:47;10.70;99.90
2050;DHT22;8478;49.208;8.806;2024-02-14T09:04:13;10.80;99.90
2050;DHT22;8478;49.208;8.806;2024-02-14T09:06:39;10.80;99.90
2050;DHT22;8478;49.208;8.806;2024-02-14T09:09:09;10.80;99.90
2050;DHT22;8478;49.208;8.806;2024-02-14T09:11:36;10.80;99.90
2050;DHT22;8478;49.208;8.806;2024-02-14T09:14:02;10.80;99.90
2050;DHT22;8478;49.208;8.806;2024-02-14T09:16:34;10.80;99.90
2050;DHT22;8478;49.208;8.806;2024-02-14T09:19:00;10.80;99.90
2050;DHT22;8478;49.208;8.806;2024-02-14T09:21:27;10.80;99.90
2050;DHT22;8478;49.208;8.806;2024-02-14T09:23:53;10.80;99.90
2050;DHT22;8478;49.208;8.806;2024-02-14T09:26:19;10.80;99.90
2050;DHT22;8478;49.208;8.806;2024-02-14T09:28:44;10.80;99.90
2050;DHT22;8478;49.208;8.806;2024-02-14T09:31:10;10.80;99.90
2050;DHT22;8478;49.208;8.806;2024-02-14T09:33:39;10.80;99.90
2050;DHT22;8478;49.208;8.806;2024-02-14T09:36:05;10.80;99.90
2050;DHT22;8478;49.208;8.806;2024-02-14T09:38:31;10.80;99.90
2050;DHT22;8478;49.208;8.806;2024-02-14T09:43:49;10.80;99.90
2050;DHT22;8478;49.208;8.806;2024-02-14T09:46:15;10.80;99.90
2050;DHT22;8478;49.208;8.806;2024-02-14T09:48:45;10.80;99.90
2050;DHT22;8478;49.208;8.806;2024-02-14T09:51:11;10.80;99.90
2050;DHT22;8478;49.208;8.806;2024-02-14T09:53:39;10.80;99.90
2050;DHT22;8478;49.208;8.806;2024-02-14T09:56:05;10.80;99.90
2050;DHT22;8478;49.208;8.806;2024-02-14T09:58:32;10.80;99.90
2050;DHT22;8478;49.208;8.806;2024-02-14T10:00:57;10.80;99.90
2050;DHT22;8478;49.208;8.806;2024-02-14T10:03:24;10.80;99.90
2050;DHT22;8478;49.208;8.806;2024-02-14T10:05:49;10.80;99.90
2050;DHT22;8478;49.208;8.806;2024-02-14T10:08:15;10.80;99.90
2050;DHT22;8478;49.208;8.806;2024-02-14T10:10:41;10.90;99.90
2050;DHT22;8478;49.208;8.806;2024-02-14T10:13:07;10.80;99.90
2050;DHT22;8478;49.208;8.806;2024-02-14T10:15:33;10.80;99.90
2050;DHT22;8478;49.208;8.806;2024-02-14T10:17:59;10.80;99.90
2050;DHT22;8478;49.208;8.806;2024-02-14T10:20:26;10.80;99.90
2050;DHT22;8478;49.208;8.806;2024-02-14T10:22:52;10.80;99.90
2050;DHT22;8478;49.208;8.806;2024-02-14T10:25:25;10.90;99.90
2050;DHT22;8478;49.208;8.806;2024-02-14T10:27:51;10.80;99.90
2050;DHT22;8478;49.208;8.806;2024-02-14T10:30:17;10.90;99.90
2050;DHT22;8478;49.208;8.806;2024-02-14T10:32:42;10.90;99.90
2050;DHT22;8478;49.208;8.806;2024-02-14T10:35:13;10.90;99.90
2050;DHT22;8478;49.208;8.806;2024-02-14T10:37:39;10.90;99.90
2050;DHT22;8478;49.208;8.806;2024-02-14T10:40:05;10.80;99.90
2050;DHT22;8478;49.208;8.806;2024-02-14T10:42:32;10.90;99.90
2050;DHT22;8478;49.208;8.806;2024-02-14T10:45:01;10.90;99.90
2050;DHT22;8478;49.208;8.806;2024-02-14T10:47:34;10.90;99.90
2050;DHT22;8478;49.208;8.806;2024-02-14T10:50:06;10.90;99.90
2050;DHT22;8478;49.208;8.806;2024-02-14T10:52:35;10.90;99.90
2050;DHT22;8478;49.208;8.806;2024-02-14T10:55:05;10.90;99.90
2050;DHT22;8478;49.208;8.806;2024-02-14T10:57:31;10.90;99.90
2050;DHT22;8478;49.208;8.806;2024-02-14T10:59:59;10.90;99.90
2050;DHT22;8478;49.208;8.806;2024-02-14T11:02:26;10.90;99.90
2050;DHT22;8478;49.208;8.806;2024-02-14T11:04:56;10.90;99.90
2050;DHT22;8478;49.208;8.806;2024-02-14T11:07:22;10.90;99.90
2050;DHT22;8478;49.208;8.806;2024-02-14T11:10:06;10.90;99.90
2050;DHT22;8478;49.208;8.806;2024-02-14T11:12:36;10.90;99.90
2050;DHT22;8478;49.208;8.806;2024-02-14T11:15:22;10.90;99.90
2050;DHT22;8478;49.208;8.806;2024-02-14T11:17:48;10.90;99.90
2050;DHT22;8478;49.208;8.806;2024-02-14T11:20:16;10.90;99.90
2050;DHT22;8478;49.208;8.806;2024-02-14T11:22:52;10.90;99.90
2050;DHT22;8478;49.208;8.806;2024-02-14T11:25:22;11.00;99.90
2050;DHT22;8478;49.208;8.806;2024-02-14T11:27:48;10.90;99.90
2050;DHT22;8478;49.208;8.806;2024-02-14T11:30:29;11.00;99.90
2050;DHT22;8478;49.208;8.806;2024-02-14T11:35:40;11.00;99.90
2050;DHT22;8478;49.208;8.806;2024-02-14T11:38:06;10.90;99.90
2050;DHT22;8478;49.208;8.806;2024-02-14T11:40:32;11.00;99.90
2050;DHT22;8478;49.208;8.806;2024-02-14T11:42:58;11.00;99.90
2050;DHT22;8478;49.208;8.806;2024-02-14T11:45:24;11.00;99.90
2050;DHT22;8478;49.208;8.806;2024-02-14T11:47:50;11.00;99.90
2050;DHT22;8478;49.208;8.806;2024-02-14T11:50:17;11.00;99.90
2050;DHT22;8478;49.208;8.806;2024-02-14T11:52:44;11.00;99.90
2050;DHT22;8478;49.208;8.806;2024-02-14T11:55:10;11.00;99.90
2050;DHT22;8478;49.208;8.806;2024-02-14T11:57:36;11.00;99.90
2050;DHT22;8478;49.208;8.806;2024-02-14T12:00:02;11.00;99.90
2050;DHT22;8478;49.208;8.806;2024-02-14T12:02:29;11.00;99.90
2050;DHT22;8478;49.208;8.806;2024-02-14T12:04:55;11.00;99.90
2050;DHT22;8478;49.208;8.806;2024-02-14T12:07:22;11.00;99.90
2050;DHT22;8478;49.208;8.806;2024-02-14T12:09:48;11.00;99.90
2050;DHT22;8478;49.208;8.806;2024-02-14T12:12:15;11.00;99.90
2050;DHT22;8478;49.208;8.806;2024-02-14T12:14:43;11.00;99.90
2050;DHT22;8478;49.208;8.806;2024-02-14T12:17:10;11.00;99.90
2050;DHT22;8478;49.208;8.806;2024-02-14T12:19:35;11.10;99.90
2050;DHT22;8478;49.208;8.806;2024-02-14T12:22:11;11.10;99.90
2050;DHT22;8478;49.208;8.806;2024-02-14T12:24:46;11.00;99.90
2050;DHT22;8478;49.208;8.806;2024-02-14T12:27:17;11.10;99.90
2050;DHT22;8478;49.208;8.806;2024-02-14T12:29:46;11.00;99.90
2050;DHT22;8478;49.208;8.806;2024-02-14T12:32:11;11.00;99.90
2050;DHT22;8478;49.208;8.806;2024-02-14T12:34:43;11.00;99.90
2050;DHT22;8478;49.208;8.806;2024-02-14T12:37:10;11.00;99.90
2050;DHT22;8478;49.208;8.806;2024-02-14T12:39:37;11.00;99.90
2050;DHT22;8478;49.208;8.806;2024-02-14T12:42:03;11.10;99.90
2050;DHT22;8478;49.208;8.806;2024-02-14T12:44:30;11.10;99.90
2050;DHT22;8478;49.208;8.806;2024-02-14T12:46:56;11.10;99.90
2050;DHT22;8478;49.208;8.806;2024-02-14T12:49:22;11.10;99.90
2050;DHT22;8478;49.208;8.806;2024-02-14T12:51:51;11.10;99.90
2050;DHT22;8478;49.208;8.806;2024-02-14T12:54:17;11.10;99.90
2050;DHT22;8478;49.208;8.806;2024-02-14T12:56:43;11.10;99.90
2050;DHT22;8478;49.208;8.806;2024-02-14T12:59:08;11.10;99.90
2050;DHT22;8478;49.208;8.806;2024-02-14T13:01:40;11.10;99.90
2050;DHT22;8478;49.208;8.806;2024-02-14T13:04:06;11.10;99.90
2050;DHT22;8478;49.208;8.806;2024-02-14T13:06:33;11.10;99.90
2050;DHT22;8478;49.208;8.806;2024-02-14T13:08:59;11.10;99.90
2050;DHT22;8478;49.208;8.806;2024-02-14T13:11:25;11.10;99.90
2050;DHT22;8478;49.208;8.806;2024-02-14T13:13:51;11.10;99.90
2050;DHT22;8478;49.208;8.806;2024-02-14T13:16:16;11.10;99.90
2050;DHT22;8478;49.208;8.806;2024-02-14T13:18:42;11.10;99.90
2050;DHT22;8478;49.208;8.806;2024-02-14T13:21:08;11.10;99.90
2050;DHT22;8478;49.208;8.806;2024-02-14T13:23:33;11.20;99.90
2050;DHT22;8478;49.208;8.806;2024-02-14T13:25:59;11.10;99.90
2050;DHT22;8478;49.208;8.806;2024-02-14T13:28:24;11.10;99.90
2050;DHT22;8478;49.208;8.806;2024-02-14T13:30:50;11.10;99.90
2050;DHT22;8478;49.208;8.806;2024-02-14T13:33:16;11.10;99.90
2050;DHT22;8478;49.208;8.806;2024-02-14T13:35:42;11.20;99.90
2050;DHT22;8478;49.208;8.806;2024-02-14T13:38:08;11.20;99.90
2050;DHT22;8478;49.208;8.806;2024-02-14T13:40:35;11.20;99.90
2050;DHT22;8478;49.208;8.806;2024-02-14T13:43:00;11.20;99.90
2050;DHT22;8478;49.208;8.806;2024-02-14T13:45:27;11.20;99.90
2050;DHT22;8478;49.208;8.806;2024-02-14T13:48:05;11.20;99.90
2050;DHT22;8478;49.208;8.806;2024-02-14T13:50:30;11.20;99.90
2050;DHT22;8478;49.208;8.806;2024-02-14T13:52:56;11.20;99.90
2050;DHT22;8478;49.208;8.806;2024-02-14T13:55:21;11.20;99.90
2050;DHT22;8478;49.208;8.806;2024-02-14T13:57:47;11.20;99.90
2050;DHT22;8478;49.208;8.806;2024-02-14T14:00:13;11.20;99.90
2050;DHT22;8478;49.208;8.806;2024-02-14T14:02:39;11.20;99.90
2050;DHT22;8478;49.208;8.806;2024-02-14T14:05:10;11.20;99.90
2050;DHT22;8478;49.208;8.806;2024-02-14T14:07:40;11.20;99.90
2050;DHT22;8478;49.208;8.806;2024-02-14T14:10:08;11.20;99.90
2050;DHT22;8478;49.208;8.806;2024-02-14T14:12:34;11.20;99.90
2050;DHT22;8478;49.208;8.806;2024-02-14T14:15:01;11.30;99.90
2050;DHT22;8478;49.208;8.806;2024-02-14T14:17:27;11.20;99.90
2050;DHT22;8478;49.208;8.806;2024-02-14T14:19:53;11.30;99.90
2050;DHT22;8478;49.208;8.806;2024-02-14T14:22:18;11.30;99.90
2050;DHT22;8478;49.208;8.806;2024-02-14T14:24:44;11.20;99.90
2050;DHT22;8478;49.208;8.806;2024-02-14T14:27:10;11.20;99.90
2050;DHT22;8478;49.208;8.806;2024-02-14T14:29:39;11.20;99.90
2050;DHT22;8478;49.208;8.806;2024-02-14T14:32:07;11.20;99.90
2050;DHT22;8478;49.208;8.806;2024-02-14T14:34:33;11.20;99.90
2050;DHT22;8478;49.208;8.806;2024-02-14T14:36:59;11.30;99.90
2050;DHT22;8478;49.208;8.806;2024-02-14T14:39:25;11.30;99.90
2050;DHT22;8478;49.208;8.806;2024-02-14T14:41:51;11.30;99.90
2050;DHT22;8478;49.208;8.806;2024-02-14T14:44:18;11.30;99.90
2050;DHT22;8478;49.208;8.806;2024-02-14T14:46:44;11.30;99.90
2050;DHT22;8478;49.208;8.806;2024-02-14T14:49:10;11.30;99.90
2050;DHT22;8478;49.208;8.806;2024-02-14T14:51:36;11.30;99.90
2050;DHT22;8478;49.208;8.806;2024-02-14T14:54:06;11.30;99.90
2050;DHT22;8478;49.208;8.806;2024-02-14T14:56:32;11.30;99.90
2050;DHT22;8478;49.208;8.806;2024-02-14T14:58:57;11.30;99.90
2050;DHT22;8478;49.208;8.806;2024-02-14T15:01:25;11.30;99.90
2050;DHT22;8478;49.208;8.806;2024-02-14T15:03:53;11.30;99.90
2050;DHT22;8478;49.208;8.806;2024-02-14T15:06:19;11.30;99.90
2050;DHT22;8478;49.208;8.806;2024-02-14T15:08:44;11.30;99.90
2050;DHT22;8478;49.208;8.806;2024-02-14T15:11:11;11.30;99.90
2050;DHT22;8478;49.208;8.806;2024-02-14T15:13:40;11.30;99.90
2050;DHT22;8478;49.208;8.806;2024-02-14T15:16:06;11.30;99.90
2050;DHT22;8478;49.208;8.806;2024-02-14T15:18:34;11.30;99.90
2050;DHT22;8478;49.208;8.806;2024-02-14T15:21:00;11.30;99.90
2050;DHT22;8478;49.208;8.806;2024-02-14T15:23:27;11.30;99.90
2050;DHT22;8478;49.208;8.806;2024-02-14T15:25:53;11.40;99.90
2050;DHT22;8478;49.208;8.806;2024-02-14T15:28:28;11.40;99.90
2050;DHT22;8478;49.208;8.806;2024-02-14T15:30:54;11.40;99.90
2050;DHT22;8478;49.208;8.806;2024-02-14T15:33:38;11.40;99.90
2050;DHT22;8478;49.208;8.806;2024-02-14T15:36:04;11.40;99.90
2050;DHT22;8478;49.208;8.806;2024-02-14T15:38:30;11.40;99.90
2050;DHT22;8478;49.208;8.806;2024-02-14T15:40:57;11.40;99.90
2050;DHT22;8478;49.208;8.806;2024-02-14T15:43:24;11.40;99.90
2050;DHT22;8478;49.208;8.806;2024-02-14T15:45:50;11.40;99.90
2050;DHT22;8478;49.208;8.806;2024-02-14T15:48:16;11.40;99.90
2050;DHT22;8478;49.208;8.806;2024-02-14T15:50:42;11.40;99.90
2050;DHT22;8478;49.208;8.806;2024-02-14T15:53:11;11.40;99.90
2050;DHT22;8478;49.208;8.806;2024-02-14T15:55:37;11.40;99.90
2050;DHT22;8478;49.208;8.806;2024-02-14T15:58:03;11.40;99.90
2050;DHT22;8478;49.208;8.806;2024-02-14T16:00:29;11.40;99.90
2050;DHT22;8478;49.208;8.806;2024-02-14T16:02:57;11.40;99.90